Time;durP1;ratioP1;P1;durP2;ratioP2;P2;SDS_P1;SDS_P2;PMS_P1;PMS_P2;Temp;Humidity;BMP_temperature;BMP_pressure;BME280_temperature;BME280_humidity;BME280_pressure;Samples;Min_cycle;Max_cycle;Signal;HPM_P1;HPM_P2
2022/05/15 00:01:54;;;;;;;18.70;2.60;;;12.70;99.90;;;;;;5016175;28;20033;-74
2022/05/15 00:04:20;;;;;;;15.10;1.88;;;12.60;99.90;;;;;;5015757;28;20026;-74
2022/05/15 00:06:45;;;;;;;17.27;2.17;;;12.60;99.90;;;;;;5015462;28;20428;-73
2022/05/15 00:09:11;;;;;;;14.38;2.33;;;12.50;99.90;;;;;;5015616;28;20022;-74
2022/05/15 00:11:37;;;;;;;18.05;2.17;;;13.30;99.90;;;;;;5015467;28;20540;-74
2022/05/15 00:14:02;;;;;;;11.48;2.55;;;12.50;99.90;;;;;;5015396;28;20028;-74
2022/05/15 00:16:31;;;;;;;11.23;1.60;;;12.40;99.90;;;;;;5015304;28;20064;-74
2022/05/15 00:18:57;;;;;;;22.08;2.67;;;12.40;99.90;;;;;;5015408;28;20025;-74
2022/05/15 00:21:22;;;;;;;16.15;2.22;;;12.40;99.90;;;;;;5015422;28;20125;-74
2022/05/15 00:23:48;;;;;;;17.83;2.75;;;12.40;99.90;;;;;;5015062;28;20030;-74
2022/05/15 00:26:13;;;;;;;18.15;1.55;;;12.40;99.90;;;;;;5014129;28;20022;-74
2022/05/15 00:28:39;;;;;;;14.02;2.03;;;12.30;99.90;;;;;;5013907;28;20038;-74
2022/05/15 00:31:06;;;;;;;10.85;2.05;;;12.30;99.90;;;;;;5014840;28;20365;-74
2022/05/15 00:33:32;;;;;;;17.25;2.55;;;12.20;99.90;;;;;;5013718;28;20044;-74
2022/05/15 00:35:57;;;;;;;15.35;2.25;;;12.10;99.90;;;;;;5013733;28;20500;-74
2022/05/15 00:38:23;;;;;;;14.05;2.40;;;12.10;99.90;;;;;;5013754;28;20476;-74
2022/05/15 00:40:49;;;;;;;14.57;2.67;;;12.10;99.90;;;;;;5030197;28;20049;-73
2022/05/15 00:43:40;;;;;;;11.45;1.60;;;12.00;99.90;;;;;;5014798;28;20025;-74
2022/05/15 00:46:10;;;;;;;18.05;2.80;;;11.90;99.90;;;;;;5013534;28;20077;-74
2022/05/15 00:48:36;;;;;;;19.33;2.35;;;11.90;99.90;;;;;;5015107;28;20025;-74
2022/05/15 00:51:24;;;;;;;17.13;2.47;;;11.80;99.90;;;;;;5014699;28;20076;-74
2022/05/15 00:53:54;;;;;;;13.48;2.53;;;11.80;99.90;;;;;;5014591;28;20048;-74
2022/05/15 00:56:23;;;;;;;12.52;1.50;;;11.80;99.90;;;;;;5014573;28;20035;-74
2022/05/15 00:58:54;;;;;;;9.38;1.17;;;11.80;99.90;;;;;;5014587;28;20029;-74
2022/05/15 01:01:20;;;;;;;14.20;2.55;;;11.80;99.90;;;;;;5013457;28;20037;-74
2022/05/15 01:03:46;;;;;;;12.57;1.33;;;11.70;99.90;;;;;;5014545;28;20026;-74
2022/05/15 01:06:12;;;;;;;17.40;2.92;;;11.70;99.90;;;;;;5014443;28;20033;-74
2022/05/15 01:08:38;;;;;;;11.93;2.20;;;11.70;99.90;;;;;;5029598;28;20044;-74
2022/05/15 01:11:12;;;;;;;11.43;1.67;;;11.60;99.90;;;;;;5014930;28;20022;-74
2022/05/15 01:13:40;;;;;;;16.52;3.28;;;11.70;99.90;;;;;;5014445;28;20454;-74
2022/05/15 01:16:06;;;;;;;18.08;3.25;;;11.70;99.90;;;;;;5012992;28;20400;-74
2022/05/15 01:18:34;;;;;;;18.50;3.13;;;11.60;99.90;;;;;;5014875;28;20029;-74
2022/05/15 01:21:04;;;;;;;17.88;2.75;;;11.60;99.90;;;;;;5014836;28;20029;-75
2022/05/15 01:23:30;;;;;;;14.70;1.75;;;11.60;99.90;;;;;;5014035;28;20022;-75
2022/05/15 01:26:00;;;;;;;23.52;3.28;;;11.50;99.90;;;;;;5014163;28;20026;-75
2022/05/15 01:28:27;;;;;;;15.45;1.98;;;11.50;99.90;;;;;;5014460;28;20369;-75
2022/05/15 01:30:55;;;;;;;15.45;1.58;;;11.50;99.90;;;;;;5014066;28;20093;-75
2022/05/15 01:33:22;;;;;;;12.88;2.80;;;11.40;99.90;;;;;;5013914;28;20476;-75
2022/05/15 01:35:48;;;;;;;14.40;2.08;;;11.40;99.90;;;;;;5013858;28;20057;-75
2022/05/15 01:38:14;;;;;;;14.55;1.70;;;11.40;99.90;;;;;;5013937;28;20052;-75
2022/05/15 01:40:40;;;;;;;12.45;1.70;;;11.40;99.90;;;;;;5012653;28;20438;-75
2022/05/15 01:43:07;;;;;;;15.38;2.03;;;11.30;99.90;;;;;;5011876;28;20049;-74
2022/05/15 01:45:33;;;;;;;7.63;0.77;;;11.30;99.90;;;;;;5014040;28;20396;-74
2022/05/15 01:47:59;;;;;;;16.23;1.67;;;11.30;99.90;;;;;;5014247;28;20029;-75
2022/05/15 01:50:25;;;;;;;16.75;2.53;;;11.20;99.90;;;;;;5012479;28;20472;-75
2022/05/15 01:52:51;;;;;;;13.95;3.75;;;11.60;99.90;;;;;;5013639;28;20084;-75
2022/05/15 01:55:17;;;;;;;15.23;1.27;;;11.20;99.90;;;;;;5028799;28;20026;-75
2022/05/15 01:57:42;;;;;;;15.60;1.77;;;11.20;99.90;;;;;;5014117;28;20022;-75
2022/05/15 02:00:13;;;;;;;17.27;2.03;;;11.20;99.90;;;;;;5012404;28;20026;-75
2022/05/15 02:02:40;;;;;;;22.63;2.95;;;11.20;99.90;;;;;;5014074;28;20362;-75
2022/05/15 02:05:07;;;;;;;13.10;2.58;;;11.20;99.90;;;;;;5013530;28;20022;-75
2022/05/15 02:07:34;;;;;;;14.77;2.25;;;11.20;99.90;;;;;;5013779;28;20480;-75
2022/05/15 02:09:59;;;;;;;12.85;1.40;;;11.10;99.90;;;;;;5012258;28;20033;-75
2022/05/15 02:12:25;;;;;;;14.68;1.50;;;11.10;99.90;;;;;;5013576;28;20030;-75
2022/05/15 02:14:51;;;;;;;17.42;2.83;;;11.10;99.90;;;;;;5013707;28;20487;-75
2022/05/15 02:17:16;;;;;;;16.05;2.22;;;11.10;99.90;;;;;;5013754;28;20030;-75
2022/05/15 02:19:42;;;;;;;13.27;0.93;;;11.10;99.90;;;;;;5028591;28;20025;-75
2022/05/15 02:22:07;;;;;;;7.72;1.90;;;11.10;99.90;;;;;;5013379;28;20019;-75
2022/05/15 02:24:33;;;;;;;10.23;2.58;;;11.10;99.90;;;;;;5012221;28;20029;-75
2022/05/15 02:26:59;;;;;;;13.48;1.63;;;11.00;99.90;;;;;;5013362;28;20033;-75
2022/05/15 02:29:25;;;;;;;8.65;1.80;;;11.00;99.90;;;;;;5013280;28;20030;-75
2022/05/15 02:31:50;;;;;;;16.60;2.28;;;11.20;99.90;;;;;;5013817;28;20113;-75
2022/05/15 02:34:16;;;;;;;15.10;1.85;;;10.90;99.90;;;;;;5028070;28;20038;-75
2022/05/15 02:36:41;;;;;;;15.73;1.73;;;10.90;99.90;;;;;;5013547;28;20487;-75
2022/05/15 02:39:07;;;;;;;21.23;2.50;;;10.90;99.90;;;;;;5013482;28;20415;-75
2022/05/15 02:41:34;;;;;;;13.35;1.70;;;10.90;99.90;;;;;;5013801;28;20026;-74
2022/05/15 02:44:00;;;;;;;18.08;1.45;;;10.80;99.90;;;;;;5011885;28;20029;-75
2022/05/15 02:46:25;;;;;;;14.07;1.92;;;10.80;99.90;;;;;;5011864;28;20030;-75
2022/05/15 02:51:35;;;;;;;14.68;2.67;;;10.70;99.90;;;;;;5014018;28;20049;-75
2022/05/15 02:54:01;;;;;;;16.77;2.83;;;10.70;99.90;;;;;;5013062;28;20025;-75
2022/05/15 02:56:30;;;;;;;19.88;2.47;;;10.70;99.90;;;;;;5016784;28;20042;-75
2022/05/15 02:58:56;;;;;;;13.45;1.25;;;10.60;99.90;;;;;;5017081;28;20013;-75
2022/05/15 03:01:22;;;;;;;14.45;1.50;;;10.60;99.90;;;;;;5016712;28;20468;-75
2022/05/15 03:03:47;;;;;;;11.65;1.35;;;10.60;99.90;;;;;;5016648;28;20026;-75
2022/05/15 03:06:13;;;;;;;16.65;2.22;;;10.50;99.90;;;;;;5016647;28;20017;-75
2022/05/15 03:08:43;;;;;;;10.32;2.28;;;10.50;99.90;;;;;;5016699;28;20033;-75
2022/05/15 03:11:09;;;;;;;20.42;2.42;;;10.50;99.90;;;;;;5015318;28;20527;-75
2022/05/15 03:13:38;;;;;;;9.93;1.38;;;10.40;99.90;;;;;;5015272;28;20116;-75
2022/05/15 03:16:05;;;;;;;14.45;2.47;;;10.40;99.90;;;;;;5016389;28;20034;-75
2022/05/15 03:18:31;;;;;;;19.45;2.05;;;10.40;99.90;;;;;;5016490;28;20506;-75
2022/05/15 03:20:57;;;;;;;9.65;1.45;;;10.40;99.90;;;;;;5016661;28;20026;-75
2022/05/15 03:23:23;;;;;;;15.77;1.88;;;10.40;99.90;;;;;;5016293;28;20050;-75
2022/05/15 03:25:49;;;;;;;12.00;2.45;;;10.30;99.90;;;;;;5015177;28;20112;-75
2022/05/15 03:28:15;;;;;;;18.33;2.30;;;10.40;99.90;;;;;;5016175;28;20030;-75
2022/05/15 03:30:42;;;;;;;17.45;2.22;;;10.30;99.90;;;;;;5016217;28;20036;-75
2022/05/15 03:33:09;;;;;;;12.30;1.77;;;10.30;99.90;;;;;;5016143;28;20452;-74
2022/05/15 03:35:39;;;;;;;12.20;1.38;;;10.30;99.90;;;;;;5018743;28;20033;-74
2022/05/15 03:38:06;;;;;;;18.77;2.90;;;10.30;99.90;;;;;;5014907;28;20045;-73
2022/05/15 03:40:32;;;;;;;12.73;1.15;;;10.30;99.90;;;;;;5014821;28;20073;-73
2022/05/15 03:42:58;;;;;;;13.13;1.98;;;10.30;99.90;;;;;;5015896;28;20030;-73
2022/05/15 03:45:24;;;;;;;14.50;1.60;;;10.30;99.90;;;;;;5016445;28;20110;-73
2022/05/15 03:47:51;;;;;;;17.35;1.40;;;10.20;99.90;;;;;;5015867;28;20041;-74
2022/05/15 03:50:18;;;;;;;19.27;3.65;;;10.20;99.90;;;;;;5014560;28;20031;-74
2022/05/15 03:52:44;;;;;;;17.80;2.50;;;10.20;99.90;;;;;;5015515;28;20030;-74
2022/05/15 03:55:11;;;;;;;13.43;2.25;;;10.20;99.90;;;;;;5015577;28;20369;-74
2022/05/15 03:57:37;;;;;;;15.43;1.70;;;10.10;99.90;;;;;;5015633;28;20148;-73
2022/05/15 04:00:04;;;;;;;13.05;1.83;;;10.10;99.90;;;;;;5015917;28;20488;-73
2022/05/15 04:02:30;;;;;;;16.35;2.10;;;10.10;99.90;;;;;;5015645;28;20018;-72
2022/05/15 04:04:57;;;;;;;11.55;1.75;;;10.10;99.90;;;;;;5015564;28;20029;-72
2022/05/15 04:07:22;;;;;;;12.55;1.60;;;10.10;99.90;;;;;;5013577;28;20519;-72
2022/05/15 04:09:49;;;;;;;17.35;1.48;;;10.10;99.90;;;;;;5015673;28;20022;-72
2022/05/15 04:12:15;;;;;;;15.43;1.48;;;10.10;99.90;;;;;;5015822;28;20108;-72
2022/05/15 04:14:41;;;;;;;13.52;1.40;;;10.10;99.90;;;;;;5015282;28;20117;-72
2022/05/15 04:17:07;;;;;;;15.05;3.25;;;10.20;99.90;;;;;;5015332;28;20053;-72
2022/05/15 04:19:37;;;;;;;9.27;1.80;;;10.10;99.90;;;;;;5015288;28;20022;-72
2022/05/15 04:22:05;;;;;;;14.43;1.67;;;10.20;99.90;;;;;;5015107;28;20415;-72
2022/05/15 04:24:33;;;;;;;12.40;1.45;;;10.20;99.90;;;;;;5013875;28;20109;-72
2022/05/15 04:27:00;;;;;;;16.88;2.55;;;10.30;99.90;;;;;;5013842;28;20413;-72
2022/05/15 04:29:26;;;;;;;16.65;2.10;;;10.30;99.90;;;;;;5015058;28;20021;-72
2022/05/15 04:31:58;;;;;;;16.30;2.08;;;10.30;99.90;;;;;;5015036;28;20026;-72
2022/05/15 04:34:25;;;;;;;9.93;1.45;;;10.40;99.90;;;;;;5014879;28;20488;-76
2022/05/15 04:36:51;;;;;;;13.82;1.15;;;10.50;99.90;;;;;;5015165;28;20046;-76
2022/05/15 04:39:17;;;;;;;11.48;1.92;;;10.50;99.90;;;;;;5013821;28;20025;-75
2022/05/15 04:41:43;;;;;;;16.65;2.33;;;10.60;99.90;;;;;;5013559;28;20026;-76
2022/05/15 04:44:08;;;;;;;17.63;2.45;;;10.60;99.90;;;;;;5029995;28;20041;-76
2022/05/15 04:46:34;;;;;;;15.52;2.88;;;10.70;99.90;;;;;;5014815;28;20026;-76
2022/05/15 04:49:00;;;;;;;19.83;2.03;;;10.70;99.90;;;;;;5015121;28;20080;-76
2022/05/15 04:51:27;;;;;;;12.10;1.90;;;10.90;99.90;;;;;;5014987;28;20040;-76
2022/05/15 04:53:54;;;;;;;13.55;1.83;;;10.90;99.90;;;;;;5014896;28;20465;-76
2022/05/15 04:56:20;;;;;;;24.08;3.65;;;10.90;99.90;;;;;;5014577;28;20022;-76
2022/05/15 04:58:46;;;;;;;13.25;1.20;;;11.00;99.90;;;;;;5014402;28;20499;-76
2022/05/15 05:01:12;;;;;;;13.00;1.73;;;11.10;99.90;;;;;;5015096;28;20111;-76
2022/05/15 05:03:37;;;;;;;13.77;2.40;;;11.20;99.90;;;;;;5014489;28;20424;-76
2022/05/15 05:06:03;;;;;;;17.23;2.53;;;11.30;99.90;;;;;;5014471;28;20030;-76
2022/05/15 05:08:29;;;;;;;14.10;2.13;;;11.40;99.90;;;;;;5014927;28;20030;-76
2022/05/15 05:10:54;;;;;;;14.68;2.00;;;11.50;99.90;;;;;;5014989;28;20030;-75
2022/05/15 05:13:20;;;;;;;17.67;2.17;;;11.60;99.90;;;;;;5014222;28;20038;-76
2022/05/15 05:15:45;;;;;;;14.32;2.70;;;11.70;99.90;;;;;;5014794;28;20057;-76
2022/05/15 05:18:16;;;;;;;13.43;1.30;;;11.80;99.90;;;;;;5013375;28;20033;-76
2022/05/15 05:20:43;;;;;;;15.02;2.90;;;11.90;99.90;;;;;;5014779;28;20018;-76
2022/05/15 05:23:09;;;;;;;14.82;2.03;;;12.00;99.90;;;;;;5012803;28;20052;-76
2022/05/15 05:25:35;;;;;;;14.07;2.65;;;12.10;99.90;;;;;;5014370;28;20105;-76
2022/05/15 05:28:00;;;;;;;16.35;1.58;;;12.20;99.90;;;;;;5014083;28;20018;-76
2022/05/15 05:30:26;;;;;;;15.27;2.15;;;12.30;99.90;;;;;;5014002;28;20030;-75
2022/05/15 05:32:52;;;;;;;9.93;2.47;;;12.40;99.90;;;;;;5013898;28;20037;-76
2022/05/15 05:35:20;;;;;;;19.67;2.47;;;12.50;99.90;;;;;;5013893;28;20042;-76
2022/05/15 05:37:46;;;;;;;17.23;2.45;;;12.60;99.90;;;;;;5012661;28;20018;-76
2022/05/15 05:40:12;;;;;;;23.00;1.83;;;12.80;99.90;;;;;;5012622;28;20515;-76
2022/05/15 05:42:38;;;;;;;13.43;2.42;;;12.90;99.90;;;;;;5013832;28;20033;-76
2022/05/15 05:45:04;;;;;;;11.75;2.05;;;13.00;99.90;;;;;;5013900;28;20030;-76
2022/05/15 05:47:30;;;;;;;13.60;1.83;;;13.10;99.90;;;;;;5029034;28;20022;-75
2022/05/15 05:49:56;;;;;;;16.88;1.63;;;13.20;99.90;;;;;;5029001;28;20026;-75
2022/05/15 05:52:23;;;;;;;9.10;1.30;;;13.30;99.90;;;;;;5013688;28;20388;-76
2022/05/15 05:54:50;;;;;;;17.65;1.85;;;13.40;99.90;;;;;;5013723;28;20083;-76
2022/05/15 05:57:16;;;;;;;13.93;1.17;;;13.60;99.90;;;;;;5013950;28;20026;-75
2022/05/15 05:59:43;;;;;;;7.57;1.13;;;13.70;99.90;;;;;;5013633;28;20026;-76
2022/05/15 06:02:08;;;;;;;12.93;1.60;;;14.00;99.90;;;;;;5014076;28;20056;-76
2022/05/15 06:04:41;;;;;;;17.05;1.65;;;13.90;99.90;;;;;;5012320;28;20069;-76
2022/05/15 06:07:13;;;;;;;7.55;1.25;;;14.00;99.90;;;;;;5013654;28;20076;-76
2022/05/15 06:09:42;;;;;;;9.00;1.02;;;14.20;99.90;;;;;;5013592;28;20032;-76
2022/05/15 06:12:08;;;;;;;16.17;1.40;;;14.30;99.90;;;;;;5013573;28;20026;-76
2022/05/15 06:14:34;;;;;;;15.93;2.75;;;14.50;99.90;;;;;;5013432;28;20041;-75
2022/05/15 06:16:59;;;;;;;14.23;1.80;;;14.60;99.90;;;;;;5013465;28;20018;-76
2022/05/15 06:19:25;;;;;;;12.80;1.90;;;14.70;99.90;;;;;;5013482;28;20026;-75
2022/05/15 06:21:50;;;;;;;14.70;1.58;;;14.80;99.90;;;;;;5013707;28;20014;-75
2022/05/15 06:24:16;;;;;;;19.67;2.65;;;15.00;99.90;;;;;;5013544;28;20068;-75
2022/05/15 06:26:42;;;;;;;12.20;1.35;;;15.10;99.90;;;;;;5013326;28;20030;-75
2022/05/15 06:29:07;;;;;;;16.35;1.58;;;15.40;99.90;;;;;;5013566;28;20045;-75
2022/05/15 06:31:33;;;;;;;12.32;1.75;;;15.30;99.90;;;;;;5016079;28;20053;-76
2022/05/15 06:33:58;;;;;;;16.33;3.40;;;15.40;99.90;;;;;;5017493;28;20038;-75
2022/05/15 06:36:24;;;;;;;10.32;1.67;;;15.50;99.90;;;;;;5017183;28;20033;-75
2022/05/15 06:38:49;;;;;;;11.30;1.35;;;15.60;99.90;;;;;;5017396;28;20080;-75
2022/05/15 06:41:15;;;;;;;11.75;1.65;;;15.70;99.90;;;;;;5015840;28;20021;-75
2022/05/15 06:43:41;;;;;;;8.65;1.13;;;15.80;99.90;;;;;;5016997;28;20040;-75
2022/05/15 06:46:06;;;;;;;10.63;1.00;;;15.90;99.90;;;;;;5016986;28;20065;-76
2022/05/15 06:48:33;;;;;;;7.00;0.65;;;16.10;99.90;;;;;;5017009;28;20022;-76
2022/05/15 06:51:00;;;;;;;14.50;1.80;;;16.10;99.90;;;;;;5016978;28;20164;-76
2022/05/15 06:53:27;;;;;;;15.00;2.22;;;16.30;99.90;;;;;;5017000;28;20026;-75
2022/05/15 06:58:37;;;;;;;13.57;1.67;;;16.60;99.90;;;;;;5017113;28;20053;-77
2022/05/15 07:01:03;;;;;;;13.60;0.80;;;16.70;99.90;;;;;;5017549;28;20022;-75
2022/05/15 07:03:28;;;;;;;7.85;1.48;;;16.90;99.90;;;;;;5017254;28;20477;-75
2022/05/15 07:05:54;;;;;;;15.10;2.15;;;17.00;99.90;;;;;;5017017;28;20480;-75
2022/05/15 07:08:20;;;;;;;8.27;0.57;;;17.10;99.90;;;;;;5031820;28;20054;-74
2022/05/15 07:10:45;;;;;;;10.57;1.77;;;17.20;99.90;;;;;;5015509;28;20495;-75
2022/05/15 07:13:12;;;;;;;12.07;1.10;;;17.30;99.90;;;;;;5015534;28;20025;-75
2022/05/15 07:15:38;;;;;;;6.88;1.38;;;17.40;99.90;;;;;;5016907;28;20034;-75
2022/05/15 07:18:08;;;;;;;8.63;0.98;;;17.60;99.90;;;;;;5016570;28;20093;-72
2022/05/15 07:20:34;;;;;;;12.98;1.00;;;17.70;99.90;;;;;;5016410;28;20026;-72
2022/05/15 07:23:00;;;;;;;14.25;3.15;;;17.80;99.90;;;;;;5016258;28;20112;-73
2022/05/15 07:25:25;;;;;;;11.63;1.95;;;17.90;99.90;;;;;;5015038;28;20074;-73
2022/05/15 07:27:51;;;;;;;14.30;1.73;;;18.00;99.90;;;;;;5016325;28;20544;-75
2022/05/15 07:30:17;;;;;;;11.07;1.30;;;18.10;99.90;;;;;;5016992;28;20037;-75
2022/05/15 07:32:43;;;;;;;7.93;1.50;;;18.20;99.90;;;;;;5016168;28;20025;-75
2022/05/15 07:35:08;;;;;;;12.05;1.95;;;18.30;99.90;;;;;;5016073;28;20184;-76
2022/05/15 07:37:34;;;;;;;14.70;1.85;;;18.50;99.90;;;;;;5016363;28;20030;-75
2022/05/15 07:39:59;;;;;;;8.30;1.60;;;18.60;99.90;;;;;;5016093;28;20078;-75
2022/05/15 07:42:25;;;;;;;7.05;0.85;;;18.80;99.90;;;;;;5014870;28;20029;-75
2022/05/15 07:44:54;;;;;;;11.43;2.45;;;19.00;99.90;;;;;;5016198;28;20037;-75
2022/05/15 07:47:19;;;;;;;;;;;19.00;99.90;;;;;;5016330;28;20072;-75
2022/05/15 07:49:45;;;;;;;16.70;1.67;;;19.10;99.90;;;;;;5016141;28;19906;-75
2022/05/15 07:52:10;;;;;;;8.43;1.10;;;19.40;99.90;;;;;;5015823;28;20030;-75
2022/05/15 07:54:36;;;;;;;14.38;1.80;;;19.50;99.70;;;;;;5016231;28;20084;-75
2022/05/15 07:57:03;;;;;;;6.30;1.58;;;19.60;99.90;;;;;;5016096;28;20072;-74
2022/05/15 07:59:29;;;;;;;15.32;2.55;;;19.70;98.40;;;;;;5014427;28;20033;-74
2022/05/15 08:01:55;;;;;;;11.75;1.45;;;19.70;98.00;;;;;;5015592;28;20040;-75
2022/05/15 08:04:22;;;;;;;8.30;1.85;;;19.80;97.50;;;;;;5014200;28;20022;-74
2022/05/15 08:09:32;;;;;;;10.00;1.55;;;20.10;97.00;;;;;;5015578;28;20037;-74
2022/05/15 08:11:58;;;;;;;11.60;1.77;;;20.20;96.10;;;;;;5015427;28;20484;-75
2022/05/15 08:14:24;;;;;;;8.88;0.80;;;20.30;95.70;;;;;;5015328;28;20026;-73
2022/05/15 08:16:49;;;;;;;4.80;0.77;;;20.40;93.50;;;;;;5015455;28;20026;-73
2022/05/15 08:24:45;;;;;;;9.02;1.45;;;20.70;92.90;;;;;;5015128;28;20403;-73
2022/05/15 08:27:11;;;;;;;9.73;1.15;;;20.90;93.30;;;;;;5014985;28;20011;-74
2022/05/15 08:29:38;;;;;;;17.95;2.17;;;21.00;92.30;;;;;;5029964;28;20021;-73
2022/05/15 08:32:05;;;;;;;10.45;1.75;;;21.20;91.50;;;;;;5014900;28;20026;-73
2022/05/15 08:34:32;;;;;;;9.20;0.85;;;21.30;90.30;;;;;;5061396;22;20056;-72
2022/05/15 08:37:00;;;;;;;7.40;1.05;;;21.30;91.00;;;;;;5034772;28;20045;-72
2022/05/15 08:39:27;;;;;;;8.68;1.00;;;21.50;87.90;;;;;;5034959;28;20022;-72
2022/05/15 08:42:16;;;;;;;11.10;1.23;;;21.50;87.10;;;;;;5035223;28;20021;-72
2022/05/15 08:44:46;;;;;;;7.40;0.88;;;21.70;87.30;;;;;;5015407;28;20512;-72
2022/05/15 08:47:22;;;;;;;8.05;1.38;;;21.80;85.70;;;;;;5014803;28;20415;-72
2022/05/15 08:50:24;;;;;;;9.52;1.90;;;21.90;81.40;;;;;;5014902;28;20078;-72
2022/05/15 08:52:56;;;;;;;8.85;0.73;;;22.10;80.50;;;;;;4983632;28;20030;-72
2022/05/15 08:55:25;;;;;;;15.65;2.00;;;22.20;78.60;;;;;;5015068;28;20037;-72
2022/05/15 08:58:04;;;;;;;7.63;0.60;;;22.20;76.80;;;;;;5014882;28;20022;-72
2022/05/15 09:00:38;;;;;;;9.85;1.27;;;22.30;77.30;;;;;;5014479;28;20026;-74
2022/05/15 09:03:17;;;;;;;7.35;1.10;;;22.50;76.20;;;;;;5014375;28;20048;-74
2022/05/15 09:06:21;;;;;;;4.20;1.17;;;22.60;75.20;;;;;;5014438;28;20026;-74
2022/05/15 09:09:26;;;;;;;9.10;1.20;;;22.80;72.60;;;;;;4992883;28;20140;-72
2022/05/15 09:12:26;;;;;;;5.00;1.20;;;22.90;71.10;;;;;;5014504;28;20022;-72
2022/05/15 09:15:04;;;;;;;4.72;1.02;;;22.90;66.80;;;;;;5011131;28;20124;-72
2022/05/15 09:17:43;;;;;;;6.72;1.67;;;23.00;67.10;;;;;;5014537;28;20026;-74
2022/05/15 09:20:35;;;;;;;8.38;1.67;;;23.10;64.30;;;;;;5014203;28;20105;-74
2022/05/15 09:23:24;;;;;;;11.02;1.70;;;23.10;65.60;;;;;;5003435;28;20034;-74
2022/05/15 09:26:20;;;;;;;7.80;1.17;;;23.20;65.90;;;;;;5014233;28;20018;-72
2022/05/15 09:28:58;;;;;;;9.70;1.30;;;23.40;62.30;;;;;;5013699;28;20072;-72
2022/05/15 09:31:26;;;;;;;10.30;1.73;;;23.60;62.00;;;;;;5014160;28;20420;-74
2022/05/15 09:34:06;;;;;;;;;;;23.70;61.40;;;;;;5014138;28;20057;-74
2022/05/15 09:36:34;;;;;;;8.10;0.73;;;23.70;59.70;;;;;;5013819;28;19958;-74
2022/05/15 09:39:27;;;;;;;5.30;1.48;;;23.60;58.70;;;;;;5013853;28;20034;-74
2022/05/15 09:45:19;;;;;;;8.70;0.68;;;23.80;57.30;;;;;;5014123;28;20185;-74
2022/05/15 09:47:51;;;;;;;6.03;0.30;;;23.90;56.10;;;;;;5013126;28;20046;-74
2022/05/15 09:50:41;;;;;;;4.85;0.20;;;24.10;52.50;;;;;;5013868;28;20026;-74
2022/05/15 09:53:10;;;;;;;7.68;0.90;;;24.30;51.40;;;;;;5013671;28;20373;-74
2022/05/15 09:55:36;;;;;;;8.02;1.02;;;24.50;51.70;;;;;;5013771;28;20026;-74
2022/05/15 09:58:05;;;;;;;7.60;0.77;;;24.60;52.00;;;;;;5013547;28;20120;-74
2022/05/15 10:00:35;;;;;;;3.88;0.30;;;24.80;51.50;;;;;;5013480;28;20396;-74
2022/05/15 10:03:22;;;;;;;3.28;0.45;;;24.80;50.60;;;;;;5013547;28;20022;-74
2022/05/15 10:05:58;;;;;;;8.75;1.63;;;24.90;50.20;;;;;;5013021;28;20030;-74
2022/05/15 10:08:27;;;;;;;3.40;0.45;;;25.00;51.40;;;;;;5013723;28;20025;-74
2022/05/15 10:11:16;;;;;;;11.15;0.65;;;25.10;51.40;;;;;;5013483;28;20026;-74
2022/05/15 10:13:50;;;;;;;5.00;0.90;;;25.10;51.40;;;;;;5013329;28;20030;-74
2022/05/15 10:16:33;;;;;;;3.70;0.50;;;25.20;51.00;;;;;;5013337;28;20026;-74
2022/05/15 10:19:05;;;;;;;8.65;0.50;;;25.30;51.50;;;;;;5013428;28;20021;-74
2022/05/15 10:21:42;;;;;;;7.32;0.98;;;25.40;50.80;;;;;;5012049;28;20030;-74
2022/05/15 10:24:33;;;;;;;4.60;0.93;;;25.60;50.90;;;;;;5013533;28;20026;-72
2022/05/15 10:27:10;;;;;;;2.63;0.20;;;25.70;50.20;;;;;;5006383;28;20089;-74
2022/05/15 10:29:59;;;;;;;1.88;0.45;;;25.90;49.30;;;;;;5013463;28;20029;-74
2022/05/15 10:32:34;;;;;;;3.83;0.30;;;25.90;44.70;;;;;;5013231;28;20029;-74
2022/05/15 10:34:59;;;;;;;1.65;0.25;;;25.90;45.20;;;;;;5012922;28;20504;-72
2022/05/15 10:37:31;;;;;;;4.75;0.40;;;26.00;45.90;;;;;;5013454;28;20042;-72
2022/05/15 10:40:08;;;;;;;4.00;0.38;;;26.20;45.50;;;;;;5013134;28;20038;-72
2022/05/15 10:42:40;;;;;;;2.90;0.13;;;26.30;44.40;;;;;;5013121;28;20018;-74
2022/05/15 10:45:28;;;;;;;3.97;0.50;;;26.20;45.20;;;;;;5013407;28;20037;-74
2022/05/15 10:48:14;;;;;;;5.53;0.20;;;26.60;45.10;;;;;;5011989;28;20026;-74
2022/05/15 10:50:58;;;;;;;2.22;0.20;;;26.50;43.70;;;;;;4972178;28;20034;-75
2022/05/15 10:59:22;;;;;;;4.18;0.55;;;26.80;43.90;;;;;;5013325;28;20137;-75
2022/05/15 11:01:57;;;;;;;;;;;27.00;43.70;;;;;;5013408;28;20096;-74
2022/05/15 11:04:49;;;;;;;6.10;0.20;;;27.20;43.10;;;;;;5011735;28;19932;-74
2022/05/15 11:07:41;;;;;;;4.20;0.10;;;27.30;42.60;;;;;;5013509;28;20496;-74
2022/05/15 11:10:21;;;;;;;15.60;0.93;;;27.30;41.90;;;;;;5013124;28;20030;-74
2022/05/15 11:13:12;;;;;;;8.25;0.80;;;27.40;42.50;;;;;;5011608;28;20018;-75
2022/05/15 11:16:05;;;;;;;6.18;0.43;;;27.50;42.70;;;;;;5012526;28;20026;-74
2022/05/15 11:18:50;;;;;;;3.03;0.82;;;27.70;42.60;;;;;;5016411;28;20050;-74
2022/05/15 11:21:35;;;;;;;5.18;0.45;;;27.50;42.70;;;;;;5016728;28;20029;-74
2022/05/15 11:24:21;;;;;;;4.90;0.28;;;27.70;43.50;;;;;;5014901;28;20164;-74
2022/05/15 11:26:53;;;;;;;7.03;0.60;;;27.90;42.50;;;;;;5016208;28;20029;-74
2022/05/15 11:29:20;;;;;;;4.22;0.10;;;28.10;43.20;;;;;;5016158;28;20026;-74
2022/05/15 11:31:51;;;;;;;4.57;0.10;;;28.30;40.40;;;;;;5014973;28;20030;-74
2022/05/15 11:34:17;;;;;;;4.75;0.17;;;28.30;38.80;;;;;;5016073;28;20299;-74
2022/05/15 11:36:48;;;;;;;2.92;0.43;;;28.50;39.10;;;;;;5015878;28;20481;-74
2022/05/15 11:39:14;;;;;;;4.95;0.00;;;28.60;38.70;;;;;;5016460;28;20022;-74
2022/05/15 11:42:08;;;;;;;4.57;0.32;;;28.60;38.30;;;;;;5015879;28;20492;-74
2022/05/15 11:44:37;;;;;;;3.83;0.38;;;28.80;39.50;;;;;;5015939;28;20026;-75
2022/05/15 11:47:15;;;;;;;9.27;0.22;;;29.10;39.40;;;;;;5016210;28;20037;-74
2022/05/15 11:49:58;;;;;;;1.67;0.10;;;29.40;38.20;;;;;;5016013;28;20469;-74
2022/05/15 11:52:53;;;;;;;4.07;0.43;;;29.40;37.30;;;;;;5014445;28;20014;-74
2022/05/15 11:55:43;;;;;;;3.85;0.32;;;29.30;38.30;;;;;;5002996;28;20117;-74
2022/05/15 11:58:32;;;;;;;5.78;0.10;;;29.40;37.20;;;;;;5015895;28;20052;-74
2022/05/15 12:01:14;;;;;;;4.05;0.00;;;29.50;36.90;;;;;;5014527;28;20025;-74
2022/05/15 12:03:39;;;;;;;1.17;0.00;;;29.30;36.50;;;;;;5015448;28;20065;-74
2022/05/15 12:06:11;;;;;;;2.60;0.10;;;29.70;36.30;;;;;;5015577;28;20057;-74
2022/05/15 12:08:39;;;;;;;5.05;0.10;;;30.00;35.70;;;;;;5015575;28;20443;-75
2022/05/15 12:11:27;;;;;;;2.38;0.00;;;30.00;35.50;;;;;;5015319;28;20104;-75
2022/05/15 12:13:54;;;;;;;1.98;0.20;;;30.10;36.30;;;;;;5014160;28;20045;-75
2022/05/15 12:16:27;;;;;;;1.55;0.20;;;30.20;35.00;;;;;;5015262;28;20026;-75
2022/05/15 12:18:58;;;;;;;1.65;0.00;;;30.20;34.60;;;;;;5015241;28;20392;-75
2022/05/15 12:21:33;;;;;;;2.00;0.00;;;30.30;34.20;;;;;;5015636;28;20033;-75
2022/05/15 12:26:53;;;;;;;4.97;0.10;;;30.30;34.50;;;;;;5015674;28;20036;-75
2022/05/15 12:29:26;;;;;;;4.03;0.65;;;30.30;35.80;;;;;;5014852;28;20036;-75
2022/05/15 12:31:55;;;;;;;1.95;0.00;;;30.70;35.50;;;;;;5015005;28;20032;-75
2022/05/15 12:34:31;;;;;;;1.67;0.43;;;31.00;33.00;;;;;;5013406;28;20404;-75
2022/05/15 12:37:01;;;;;;;3.30;0.15;;;31.00;33.60;;;;;;5015188;28;20018;-75
2022/05/15 12:39:33;;;;;;;2.00;0.00;;;31.20;32.90;;;;;;5015151;28;20022;-75
2022/05/15 12:42:01;;;;;;;1.63;0.20;;;31.30;33.50;;;;;;5013607;28;20025;-75
2022/05/15 12:44:34;;;;;;;1.42;0.10;;;31.30;32.20;;;;;;5014638;28;20011;-75
2022/05/15 12:47:02;;;;;;;0.95;0.10;;;31.30;33.80;;;;;;5014765;28;20477;-75
2022/05/15 12:49:29;;;;;;;;;;;31.40;33.70;;;;;;5015007;28;20071;-75
2022/05/15 12:52:09;;;;;;;3.70;0.10;;;31.70;34.10;;;;;;5014634;28;19909;-75
2022/05/15 12:54:35;;;;;;;1.58;0.22;;;32.00;33.10;;;;;;5013475;28;20067;-75
2022/05/15 12:57:05;;;;;;;2.92;0.08;;;32.00;33.90;;;;;;5014692;28;20028;-75
2022/05/15 12:59:36;;;;;;;2.03;0.00;;;32.20;32.90;;;;;;5014399;28;20029;-75
2022/05/15 13:02:29;;;;;;;4.57;0.20;;;32.30;32.40;;;;;;5014937;28;20033;-75
2022/05/15 13:04:58;;;;;;;1.73;0.00;;;32.20;32.10;;;;;;5014488;28;20030;-75
2022/05/15 13:07:26;;;;;;;7.60;0.65;;;32.40;32.20;;;;;;5014524;28;20423;-75
2022/05/15 13:09:58;;;;;;;;;;;32.10;31.30;;;;;;5014756;28;20391;-75
2022/05/15 13:12:24;;;;;;;2.92;0.30;;;32.00;32.40;;;;;;5012956;28;19952;-75
2022/05/15 13:14:50;;;;;;;5.63;0.10;;;32.20;32.70;;;;;;5014152;28;20476;-75
2022/05/15 13:17:34;;;;;;;3.22;0.10;;;32.20;32.80;;;;;;5012921;28;20026;-75
2022/05/15 13:20:08;;;;;;;3.40;0.50;;;32.30;33.40;;;;;;5014396;28;20021;-75
2022/05/15 13:22:35;;;;;;;2.25;0.30;;;32.10;33.70;;;;;;5014586;28;20335;-75
2022/05/15 13:25:09;;;;;;;1.05;0.00;;;32.10;33.50;;;;;;5014370;28;20029;-75